Time;durP1;ratioP1;P1;durP2;ratioP2;P2;SDS_P1;SDS_P2;PMS_P1;PMS_P2;Temp;Humidity;BMP_temperature;BMP_pressure;BME280_temperature;BME280_humidity;BME280_pressure;Samples;Min_cycle;Max_cycle;Signal;HPM_P1;HPM_P2
2021/01/02 00:01:43;;;;;;;15.34;6.39;;;;;;;-0.35;89.05;98939.69;2051583;78;20202;-73
2021/01/02 00:04:50;;;;;;;11.86;6.27;;;;;;;-0.42;89.04;98947.94;2050774;78;20198;-73
2021/01/02 00:08:11;;;;;;;10.93;6.32;;;;;;;-0.46;89.25;98943.56;2051202;78;20200;-73
2021/01/02 00:11:32;;;;;;;11.39;6.00;;;;;;;-0.47;89.50;98942.69;2050941;78;20175;-73
2021/01/02 00:14:42;;;;;;;10.11;6.79;;;;;;;-0.49;89.68;98938.38;2051366;78;20175;-73
2021/01/02 00:17:59;;;;;;;17.91;6.94;;;;;;;-0.45;89.98;98935.97;2050995;78;20183;-73
2021/01/02 00:21:12;;;;;;;18.30;6.43;;;;;;;-0.42;90.03;98933.50;2051495;78;20208;-73
2021/01/02 00:24:33;;;;;;;8.72;6.56;;;;;;;-0.47;89.72;98942.69;2052222;78;20178;-73
2021/01/02 00:27:50;;;;;;;10.03;6.08;;;;;;;-0.45;90.21;98938.50;2051733;78;20274;-73
2021/01/02 00:31:00;;;;;;;12.16;6.91;;;;;;;-0.45;90.23;98938.50;2052554;78;20264;-73
2021/01/02 00:34:03;;;;;;;13.46;6.18;;;;;;;-0.45;90.06;98945.28;2095077;68;20173;-72
2021/01/02 00:37:30;;;;;;;14.81;5.92;;;;;;;-0.56;89.65;98947.47;2037349;79;20197;-72
2021/01/02 00:40:36;;;;;;;15.13;6.30;;;;;;;-0.61;89.65;98943.94;2036593;79;20221;-73
2021/01/02 00:43:38;;;;;;;13.33;6.40;;;;;;;-0.68;89.58;98939.47;2037099;79;20196;-72
2021/01/02 00:46:42;;;;;;;10.14;5.96;;;;;;;-0.66;89.93;98942.91;2037196;79;20241;-72
2021/01/02 00:49:44;;;;;;;9.16;5.70;;;;;;;-0.65;90.06;98942.97;2036974;79;20197;-73
2021/01/02 00:52:46;;;;;;;8.39;5.14;;;;;;;-0.66;89.95;98942.91;2036646;79;20237;-72
2021/01/02 00:55:58;;;;;;;10.91;6.21;;;;;;;-0.69;89.85;98940.28;2036876;79;20184;-72
2021/01/02 00:59:37;;;;;;;9.01;6.03;;;;;;;-0.76;89.64;98944.28;2037289;79;20350;-75
2021/01/02 01:02:57;;;;;;;11.19;5.30;;;;;;;-0.79;89.88;98956.94;2036928;79;20210;-72
2021/01/02 01:06:02;;;;;;;8.38;5.36;;;;;;;-0.82;89.80;98948.31;2036824;79;20206;-72
2021/01/02 01:09:05;;;;;;;8.53;6.04;;;;;;;-0.89;89.73;98947.28;2036741;79;20207;-72
2021/01/02 01:12:08;;;;;;;7.97;5.32;;;;;;;-0.82;90.19;98948.31;2037165;79;20199;-72
2021/01/02 01:15:11;;;;;;;12.54;5.04;;;;;;;-0.73;90.28;98949.47;2037179;79;20185;-72
2021/01/02 01:18:46;;;;;;;9.10;5.58;;;;;;;-0.76;89.78;98953.63;2037235;79;20641;-72
2021/01/02 01:21:51;;;;;;;8.59;5.63;;;;;;;-0.77;89.90;98957.84;2033960;79;20184;-72
2021/01/02 01:25:03;;;;;;;10.14;5.57;;;;;;;-0.79;89.82;98966.25;2037293;79;20207;-71
2021/01/02 01:28:09;;;;;;;17.88;6.52;;;;;;;-0.82;89.69;98972.13;2036802;79;20775;-72
2021/01/02 01:31:16;;;;;;;6.71;4.72;;;;;;;-0.87;89.46;98983.84;2036697;79;20200;-72
2021/01/02 01:34:23;;;;;;;7.87;5.20;;;;;;;-0.88;89.64;98981.25;2036616;79;20724;-72
2021/01/02 01:37:27;;;;;;;9.33;5.92;;;;;;;-0.86;89.88;98975.41;2036980;79;20228;-72
2021/01/02 01:40:32;;;;;;;9.51;5.61;;;;;;;-0.80;90.04;98977.28;2036190;79;20194;-72
2021/01/02 01:44:05;;;;;;;8.49;5.76;;;;;;;-0.76;90.09;98967.22;2036321;79;20169;-72
2021/01/02 01:47:39;;;;;;;10.54;5.59;;;;;;;-0.74;89.97;98970.69;2037594;79;20173;-72
2021/01/02 01:51:05;;;;;;;7.94;5.26;;;;;;;-0.71;89.94;98978.47;2035894;79;20211;-72
2021/01/02 01:54:28;;;;;;;13.82;5.49;;;;;;;-0.76;89.69;98974.88;2036959;79;20176;-72
2021/01/02 01:57:30;;;;;;;19.37;5.41;;;;;;;-0.91;89.26;98974.34;2036521;79;20168;-72
2021/01/02 02:00:43;;;;;;;7.13;5.28;;;;;;;-0.98;89.49;98975.84;2036847;79;20305;-71
2021/01/02 02:04:18;;;;;;;12.37;5.78;;;;;;;-0.98;89.88;98983.47;2034780;79;20238;-72
2021/01/02 02:07:38;;;;;;;8.82;5.32;;;;;;;-0.99;89.82;98970.69;2034944;79;20208;-72
2021/01/02 02:10:47;;;;;;;14.46;5.29;;;;;;;-0.91;90.25;98974.34;2035025;79;20236;-72
2021/01/02 02:13:50;;;;;;;11.02;6.01;;;;;;;-0.90;90.02;98970.97;2035695;79;20235;-72
2021/01/02 02:16:57;;;;;;;8.14;5.44;;;;;;;-1.02;89.71;98974.00;2035969;79;21049;-72
2021/01/02 02:20:08;;;;;;;8.89;5.64;;;;;;;-0.95;90.22;98972.53;2035306;79;20165;-71
2021/01/02 02:23:13;;;;;;;12.63;5.81;;;;;;;-0.91;90.29;98967.56;2035268;79;20213;-72
2021/01/02 02:26:31;;;;;;;9.40;5.64;;;;;;;-0.98;89.86;98973.28;2035803;79;20195;-72
2021/01/02 02:29:38;;;;;;;15.09;5.36;;;;;;;-0.95;90.11;98962.31;2035952;79;20278;-72
2021/01/02 02:32:47;;;;;;;9.92;5.70;;;;;;;-1.01;89.68;98968.09;2035144;79;20617;-71
2021/01/02 02:35:53;;;;;;;11.37;5.77;;;;;;;-1.03;89.99;98964.63;2036167;79;20176;-72
2021/01/02 02:39:00;;;;;;;9.54;6.29;;;;;;;-1.09;89.68;98969.50;2036249;79;20199;-71
2021/01/02 02:42:04;;;;;;;17.22;5.71;;;;;;;-1.09;90.03;98969.50;2035507;79;20708;-72
2021/01/02 02:45:12;;;;;;;9.52;5.74;;;;;;;-1.07;89.89;98970.44;2035534;79;20210;-71
2021/01/02 02:48:17;;;;;;;9.49;6.16;;;;;;;-1.07;90.20;98967.03;2034822;79;20903;-71
2021/01/02 02:51:26;;;;;;;9.13;5.96;;;;;;;-0.98;90.43;98969.88;2034895;79;20316;-71
2021/01/02 02:54:28;;;;;;;10.42;5.37;;;;;;;-0.91;90.36;98964.16;2034928;79;20173;-72
2021/01/02 02:57:32;;;;;;;10.71;5.90;;;;;;;-0.99;89.92;98971.56;2036027;79;20770;-71
2021/01/02 03:00:36;;;;;;;14.19;6.06;;;;;;;-1.00;90.13;98976.59;2035005;79;20583;-71
2021/01/02 03:03:37;;;;;;;16.78;6.38;;;;;;;-1.02;90.11;98979.09;2036513;79;20201;-71
2021/01/02 03:06:39;;;;;;;15.79;6.03;;;;;;;-1.01;90.12;98987.59;2038415;79;20203;-71
2021/01/02 03:09:41;;;;;;;18.62;8.03;;;;;;;-1.01;89.98;98983.38;2038247;79;20624;-71
2021/01/02 03:12:48;;;;;;;26.27;8.57;;;;;;;-1.02;90.10;98983.31;2038128;79;20194;-71
2021/01/02 03:15:49;;;;;;;21.26;8.51;;;;;;;-1.02;89.97;98989.28;2037710;79;20907;-71
2021/01/02 03:18:51;;;;;;;30.77;9.20;;;;;;;-1.02;90.15;98986.75;2038489;79;20781;-71
2021/01/02 03:21:52;;;;;;;23.31;9.33;;;;;;;-1.05;89.96;98989.19;2041062;79;20216;-71
2021/01/02 03:24:54;;;;;;;20.20;9.21;;;;;;;-1.09;90.08;98989.00;2037850;79;20867;-71
2021/01/02 03:27:56;;;;;;;18.22;8.94;;;;;;;-1.06;90.28;98992.56;2038247;79;20565;-71
2021/01/02 03:30:59;;;;;;;20.42;9.31;;;;;;;-1.01;90.45;99000.34;2037806;79;20209;-71
2021/01/02 03:34:01;;;;;;;19.34;9.06;;;;;;;-1.01;90.32;98997.81;2037925;79;20165;-71
2021/01/02 03:37:04;;;;;;;17.81;9.04;;;;;;;-1.05;90.07;99001.06;2038100;79;20939;-71
2021/01/02 03:40:07;;;;;;;20.00;9.17;;;;;;;-1.05;90.26;99001.94;2038040;79;20785;-71
2021/01/02 03:43:09;;;;;;;23.07;9.93;;;;;;;-1.03;90.12;98999.44;2038083;79;20224;-71
2021/01/02 03:46:10;;;;;;;20.72;10.09;;;;;;;-1.05;90.17;98998.50;2038680;79;20218;-71
2021/01/02 03:49:12;;;;;;;23.87;10.33;;;;;;;-1.00;90.39;98997.84;2037634;79;20185;-71
2021/01/02 03:52:14;;;;;;;25.28;10.71;;;;;;;-1.05;90.15;98995.97;2039144;79;20198;-71
2021/01/02 03:55:15;;;;;;;25.58;9.91;;;;;;;-0.99;90.53;98993.63;2038568;79;20719;-71
2021/01/02 03:58:17;;;;;;;20.83;10.27;;;;;;;-1.00;90.35;98989.34;2039344;79;20218;-71
2021/01/02 04:01:18;;;;;;;32.73;11.17;;;;;;;-0.95;90.62;98990.34;2039057;79;20191;-71
2021/01/02 04:04:20;;;;;;;23.08;11.19;;;;;;;-0.97;90.53;98992.84;2037340;79;20221;-71
2021/01/02 04:07:22;;;;;;;26.19;11.24;;;;;;;-1.00;90.47;98992.75;2037639;79;20287;-71
2021/01/02 04:10:24;;;;;;;26.64;12.14;;;;;;;-1.02;90.49;98991.84;2037555;79;20192;-71
2021/01/02 04:13:25;;;;;;;25.51;11.53;;;;;;;-1.00;90.70;98990.19;2037064;79;20297;-71
2021/01/02 04:16:31;;;;;;;19.97;10.31;;;;;;;-1.01;90.59;98983.38;2037585;79;20170;-71
2021/01/02 04:19:33;;;;;;;23.64;11.03;;;;;;;-0.94;90.79;98984.44;2038096;79;20729;-71
2021/01/02 04:22:35;;;;;;;26.87;11.39;;;;;;;-0.87;90.84;98983.00;2036296;79;20250;-72
2021/01/02 04:25:39;;;;;;;23.61;11.32;;;;;;;-0.83;90.81;98967.84;2037678;79;20181;-71
2021/01/02 04:28:41;;;;;;;22.97;10.08;;;;;;;-0.78;90.68;98965.44;2037528;79;20195;-71
2021/01/02 04:31:43;;;;;;;21.97;10.79;;;;;;;-0.76;90.65;98963.81;2037321;79;20196;-71
2021/01/02 04:34:44;;;;;;;25.17;11.23;;;;;;;-0.75;90.60;98965.53;2036952;79;20967;-71
2021/01/02 04:37:46;;;;;;;22.50;10.34;;;;;;;-0.69;90.73;98970.88;2036684;79;20740;-72
2021/01/02 04:40:47;;;;;;;20.86;10.54;;;;;;;-0.62;90.76;98967.69;2036845;79;20177;-72
2021/01/02 04:43:50;;;;;;;18.46;9.63;;;;;;;-0.62;90.52;98973.66;2037449;79;20730;-71
2021/01/02 04:46:54;;;;;;;16.38;9.00;;;;;;;-0.64;90.48;98967.66;2035627;79;20368;-72
2021/01/02 04:49:58;;;;;;;12.73;8.00;;;;;;;-0.67;90.34;98971.78;2035551;79;20181;-72
2021/01/02 04:53:04;;;;;;;14.67;7.72;;;;;;;-0.70;90.11;98976.78;2035874;79;20752;-71
2021/01/02 04:56:07;;;;;;;16.98;7.90;;;;;;;-0.73;90.01;98974.97;2036131;79;20194;-71
2021/01/02 04:59:11;;;;;;;15.97;8.30;;;;;;;-0.73;90.15;98976.66;2035565;79;20745;-71
2021/01/02 05:02:13;;;;;;;13.29;8.16;;;;;;;-0.74;90.08;98980.88;2035938;79;20199;-71
2021/01/02 05:05:18;;;;;;;12.80;7.10;;;;;;;-0.73;90.29;98985.16;2039315;79;20631;-72
2021/01/02 05:08:19;;;;;;;12.64;6.51;;;;;;;-0.80;89.92;98982.38;2035276;79;20172;-71
2021/01/02 05:11:24;;;;;;;10.97;5.96;;;;;;;-0.83;90.02;98983.13;2036173;79;20169;-71
2021/01/02 05:14:25;;;;;;;10.67;6.11;;;;;;;-0.83;90.15;98988.25;2035369;79;20911;-72
2021/01/02 05:17:28;;;;;;;16.24;6.32;;;;;;;-0.81;90.16;98981.50;2035202;79;20240;-72
2021/01/02 05:20:30;;;;;;;17.23;5.98;;;;;;;-0.88;89.80;98983.81;2035173;79;20181;-72
2021/01/02 05:23:32;;;;;;;11.36;5.78;;;;;;;-0.87;89.98;98983.00;2035632;79;20161;-71
2021/01/02 05:26:40;;;;;;;11.01;5.54;;;;;;;-0.95;89.86;98987.81;2035279;79;20198;-71
2021/01/02 05:29:42;;;;;;;13.42;4.97;;;;;;;-0.99;89.94;98985.97;2036071;79;20169;-71
2021/01/02 05:33:07;;;;;;;10.18;5.78;;;;;;;-1.04;89.60;98987.50;2035252;79;20700;-71
2021/01/02 05:36:20;;;;;;;11.67;6.09;;;;;;;-1.08;89.83;98986.50;2034025;79;20200;-72
2021/01/02 05:39:34;;;;;;;14.97;6.32;;;;;;;-1.08;89.99;98985.63;2035994;79;20308;-71
2021/01/02 05:42:39;;;;;;;11.10;6.03;;;;;;;-1.04;90.14;98990.91;2035593;79;20630;-71
2021/01/02 05:45:41;;;;;;;13.32;6.40;;;;;;;-1.06;89.99;98991.69;2034841;79;20661;-71
2021/01/02 05:48:43;;;;;;;12.93;7.07;;;;;;;-1.00;90.37;98991.88;2035312;79;20201;-71
2021/01/02 05:51:47;;;;;;;14.59;7.48;;;;;;;-0.91;90.44;98997.28;2036896;79;20673;-71
2021/01/02 05:54:50;;;;;;;13.30;6.23;;;;;;;-0.86;90.41;99000.88;2036927;79;20186;-71
2021/01/02 05:57:52;;;;;;;12.78;6.81;;;;;;;-0.82;90.30;98999.28;2036924;79;20169;-71
2021/01/02 06:01:10;;;;;;;15.07;6.60;;;;;;;-0.86;90.08;99007.66;2036510;79;20200;-71
2021/01/02 06:04:12;;;;;;;13.72;6.92;;;;;;;-0.88;90.19;99002.50;2037257;79;20189;-71
2021/01/02 06:07:13;;;;;;;14.11;6.74;;;;;;;-0.85;90.28;99004.28;2036417;79;20952;-71
2021/01/02 06:10:16;;;;;;;13.03;7.53;;;;;;;-0.84;90.34;99009.44;2037167;79;20177;-71
2021/01/02 06:13:18;;;;;;;13.56;7.22;;;;;;;-0.85;90.30;99007.72;2036707;79;20648;-71
2021/01/02 06:16:20;;;;;;;17.61;8.07;;;;;;;-0.82;90.29;99007.81;2036999;79;20161;-71
2021/01/02 06:19:22;;;;;;;16.11;7.68;;;;;;;-0.87;89.98;99011.88;2036453;79;20234;-71
2021/01/02 06:22:26;;;;;;;16.57;7.54;;;;;;;-0.82;90.25;99010.34;2037221;79;20201;-71
2021/01/02 06:25:28;;;;;;;12.44;6.76;;;;;;;-0.85;90.02;99005.16;2036792;79;20164;-71
2021/01/02 06:28:30;;;;;;;11.67;6.92;;;;;;;-0.86;89.94;99008.53;2037035;79;20165;-71
2021/01/02 06:31:34;;;;;;;15.11;7.11;;;;;;;-0.87;89.82;99008.47;2037157;79;20195;-71
2021/01/02 06:34:36;;;;;;;12.29;6.13;;;;;;;-0.93;89.60;99015.06;2036547;79;20165;-71
2021/01/02 06:37:49;;;;;;;13.50;6.33;;;;;;;-0.89;89.91;99023.72;2036548;79;20183;-71
2021/01/02 06:40:53;;;;;;;11.41;6.66;;;;;;;-0.96;89.49;99022.63;2036393;79;20173;-71
2021/01/02 06:43:55;;;;;;;15.02;7.29;;;;;;;-1.02;89.32;99017.31;2037241;79;20195;-71
2021/01/02 06:47:12;;;;;;;13.56;6.83;;;;;;;-1.09;89.32;99020.44;2036593;79;20783;-70
2021/01/02 06:50:17;;;;;;;15.18;7.16;;;;;;;-1.02;89.85;99019.00;2037028;79;20201;-70
2021/01/02 06:53:25;;;;;;;13.83;6.40;;;;;;;-0.99;89.69;99019.09;2036354;79;20193;-71
2021/01/02 06:56:31;;;;;;;14.39;7.12;;;;;;;-0.96;89.90;99021.75;2036683;79;20188;-71
2021/01/02 06:59:32;;;;;;;13.80;7.09;;;;;;;-0.92;89.75;99018.47;2036730;79;20189;-70
2021/01/02 07:02:34;;;;;;;12.64;6.77;;;;;;;-0.89;89.71;99023.72;2036618;79;20275;-72
2021/01/02 07:05:48;;;;;;;13.60;7.62;;;;;;;-0.89;89.48;99026.25;2036248;79;20226;-72
2021/01/02 07:08:51;;;;;;;14.46;6.32;;;;;;;-1.02;88.75;99027.50;2036321;79;20199;-71
2021/01/02 07:12:06;;;;;;;15.79;6.62;;;;;;;-1.07;88.91;99028.16;2036152;79;20215;-71
2021/01/02 07:15:08;;;;;;;12.99;6.81;;;;;;;-1.15;88.72;99035.50;2036110;79;20184;-71
2021/01/02 07:18:24;;;;;;;11.23;6.59;;;;;;;-1.17;nan;99033.72;2036866;79;20562;-71
2021/01/02 07:21:38;;;;;;;16.03;7.63;;;;;;;-1.25;nan;99036.88;2038909;79;20296;-72
2021/01/02 07:24:41;;;;;;;11.64;6.19;;;;;;;-1.27;89.11;99030.84;2040327;79;20289;-71
2021/01/02 07:27:44;;;;;;;13.14;6.96;;;;;;;-1.25;89.39;99036.88;2038143;79;20242;-71
2021/01/02 07:30:45;;;;;;;12.90;6.76;;;;;;;-1.20;89.56;99038.72;2037023;79;20196;-71
2021/01/02 07:33:47;;;;;;;12.27;6.54;;;;;;;-1.10;89.62;99045.84;2037034;79;21147;-71
2021/01/02 07:36:50;;;;;;;9.64;5.71;;;;;;;-1.10;89.59;99046.72;2033006;79;20290;-71
2021/01/02 07:40:21;;;;;;;11.90;6.61;;;;;;;-1.09;89.32;99050.13;2038108;79;20206;-71
2021/01/02 07:43:24;;;;;;;14.30;7.41;;;;;;;-1.07;89.19;99057.06;2033998;79;20203;-71
2021/01/02 07:46:26;;;;;;;14.22;6.36;;;;;;;-1.02;89.32;99059.75;2037773;79;21120;-71
2021/01/02 07:49:28;;;;;;;13.80;7.57;;;;;;;-0.96;89.44;99054.88;2037710;79;20195;-71
2021/01/02 07:52:29;;;;;;;15.42;8.11;;;;;;;-0.96;89.07;99062.50;2036676;79;20320;-71
2021/01/02 07:55:32;;;;;;;13.94;7.38;;;;;;;-0.93;89.32;99054.97;2038127;79;20206;-72
2021/01/02 07:58:34;;;;;;;14.52;7.47;;;;;;;-0.96;88.83;99057.41;2037474;79;20173;-73
2021/01/02 08:01:36;;;;;;;11.52;6.77;;;;;;;-0.96;88.98;99054.88;2037713;79;20910;-71
2021/01/02 08:04:37;;;;;;;13.72;6.82;;;;;;;-0.98;88.59;99053.94;2037709;79;20181;-71
2021/01/02 08:07:40;;;;;;;10.37;6.26;;;;;;;-0.90;88.99;99055.06;2038411;79;20203;-71
2021/01/02 08:10:42;;;;;;;10.66;6.18;;;;;;;-0.91;88.48;99072.06;2037883;79;20181;-70
2021/01/02 08:13:44;;;;;;;10.68;6.61;;;;;;;-1.02;88.09;99073.38;2037920;79;20230;-71
2021/01/02 08:17:00;;;;;;;11.90;6.52;;;;;;;-1.09;87.98;99068.84;2037230;79;20239;-72
2021/01/02 08:20:02;;;;;;;9.61;6.11;;;;;;;-1.11;88.05;99070.47;2035870;79;20165;-73
2021/01/02 08:23:15;;;;;;;10.30;5.87;;;;;;;-1.08;87.96;99077.34;2036208;79;20165;-71
2021/01/02 08:26:18;;;;;;;10.77;6.00;;;;;;;-1.11;88.12;99069.59;2036692;79;20884;-75
2021/01/02 08:29:19;;;;;;;13.14;6.90;;;;;;;-1.05;88.30;99073.25;2038882;79;20237;-78
2021/01/02 08:32:25;;;;;;;12.17;6.50;;;;;;;-1.08;88.13;99073.13;2037888;79;20208;-80
2021/01/02 08:35:29;;;;;;;12.33;6.21;;;;;;;-0.99;88.41;99081.13;2036800;79;20206;-77
2021/01/02 08:38:31;;;;;;;10.92;7.27;;;;;;;-1.02;88.20;99082.69;2036673;79;20173;-78
2021/01/02 08:41:33;;;;;;;12.04;6.31;;;;;;;-1.03;88.16;99079.28;2035999;79;20203;-78
2021/01/02 08:44:37;;;;;;;12.48;6.32;;;;;;;-1.01;88.30;99077.66;2036408;79;20417;-79
2021/01/02 08:47:40;;;;;;;10.19;6.57;;;;;;;-1.02;87.97;99081.00;2036159;79;20185;-78
2021/01/02 08:50:42;;;;;;;13.52;6.87;;;;;;;-0.94;88.54;99078.72;2035782;79;20177;-79
2021/01/02 08:53:44;;;;;;;12.57;6.31;;;;;;;-0.82;88.53;99084.25;2036189;79;20199;-80
2021/01/02 08:56:45;;;;;;;14.09;7.70;;;;;;;-0.81;88.23;99086.00;2036300;79;20674;-78
2021/01/02 08:59:47;;;;;;;13.11;6.11;;;;;;;-0.81;88.34;99088.56;2035453;79;20193;-79
2021/01/02 09:02:51;;;;;;;12.98;6.22;;;;;;;-0.87;87.91;99080.69;2035235;79;20185;-79
2021/01/02 09:05:54;;;;;;;11.62;5.89;;;;;;;-0.95;87.47;99085.50;2035750;79;20256;-79
2021/01/02 09:09:01;;;;;;;14.26;7.08;;;;;;;-1.00;87.62;99081.94;2036084;79;20181;-80
2021/01/02 09:12:05;;;;;;;15.24;6.91;;;;;;;-0.99;87.62;99090.44;2037258;79;20213;-79
2021/01/02 09:15:07;;;;;;;15.12;7.72;;;;;;;-0.95;87.45;99095.69;2038268;79;20214;-79
2021/01/02 09:18:14;;;;;;;12.17;6.90;;;;;;;-0.93;87.51;99088.09;2036701;79;20228;-78
2021/01/02 09:21:19;;;;;;;16.50;7.39;;;;;;;-0.87;87.73;99085.78;2036766;79;20348;-78
2021/01/02 09:24:32;;;;;;;16.53;6.92;;;;;;;-0.83;87.71;99091.84;2037807;79;20581;-80
2021/01/02 09:27:42;;;;;;;16.02;7.22;;;;;;;-0.86;87.43;99094.31;2038167;79;20176;-74
2021/01/02 09:30:45;;;;;;;19.38;7.51;;;;;;;-0.80;87.81;99091.97;2036279;79;20674;-74
2021/01/02 09:33:48;;;;;;;15.67;7.08;;;;;;;-0.82;87.41;99091.03;2036664;79;20340;-75
2021/01/02 09:36:51;;;;;;;14.63;7.62;;;;;;;-0.82;87.74;99081.72;2036722;79;20571;-74
2021/01/02 09:40:17;;;;;;;17.63;7.86;;;;;;;-0.73;88.00;99086.25;2035783;79;20202;-75
2021/01/02 09:43:19;;;;;;;18.16;7.66;;;;;;;-0.68;87.80;99083.06;2033896;79;20184;-75
2021/01/02 09:46:27;;;;;;;19.23;8.87;;;;;;;-0.68;87.89;99084.75;2035384;79;20234;-75
2021/01/02 09:49:28;;;;;;;20.92;8.40;;;;;;;-0.65;87.92;99082.31;2035954;79;20198;-75
2021/01/02 09:52:30;;;;;;;17.36;7.04;;;;;;;-0.62;87.81;99083.28;2035588;79;20342;-75
2021/01/02 09:55:32;;;;;;;17.17;8.16;;;;;;;-0.58;87.96;99084.25;2034896;79;20197;-75
2021/01/02 09:58:34;;;;;;;18.53;8.34;;;;;;;-0.53;87.88;99081.88;2035773;79;20978;-75
2021/01/02 10:01:35;;;;;;;18.14;8.00;;;;;;;-0.49;87.77;99084.56;2035789;79;20200;-75
2021/01/02 10:04:48;;;;;;;16.58;7.91;;;;;;;-0.50;87.55;99085.41;2035910;79;20206;-75
2021/01/02 10:07:51;;;;;;;20.86;8.80;;;;;;;-0.54;87.21;99077.56;2035606;79;20231;-75
2021/01/02 10:10:53;;;;;;;18.38;7.68;;;;;;;-0.50;87.51;99076.88;2036164;79;20197;-74
2021/01/02 10:13:55;;;;;;;12.18;6.78;;;;;;;-0.34;88.00;99068.94;2035800;79;20220;-75
2021/01/02 10:16:57;;;;;;;16.13;8.36;;;;;;;-0.12;88.14;99078.16;2035621;79;20161;-75
2021/01/02 10:19:59;;;;;;;16.92;9.17;;;;;;;-0.04;87.78;99077.56;2036243;79;20172;-76
2021/01/02 10:23:01;;;;;;;12.14;6.70;;;;;;;0.02;87.50;99084.56;2035293;79;20203;-75
2021/01/02 10:26:02;;;;;;;15.16;7.42;;;;;;;0.02;87.26;99081.16;2035712;79;20558;-77
2021/01/02 10:29:04;;;;;;;13.34;7.13;;;;;;;0.11;87.44;99081.44;2035680;79;20196;-76
2021/01/02 10:32:06;;;;;;;15.29;8.21;;;;;;;0.20;87.37;99081.75;2035455;79;20206;-76
2021/01/02 10:35:11;;;;;;;14.40;6.73;;;;;;;0.27;87.07;99076.00;2033787;79;21059;-75
2021/01/02 10:38:13;;;;;;;12.76;6.43;;;;;;;0.37;86.69;99080.59;2034277;79;20198;-75
2021/01/02 10:41:15;;;;;;;15.32;7.00;;;;;;;0.36;85.82;99070.28;2034617;79;20362;-75
2021/01/02 10:44:19;;;;;;;12.02;6.87;;;;;;;0.42;85.66;99066.25;2035728;79;20180;-74
2021/01/02 10:47:23;;;;;;;13.30;6.49;;;;;;;0.35;84.97;99066.00;2034915;79;20188;-74
2021/01/02 10:50:25;;;;;;;14.10;7.60;;;;;;;0.33;84.71;99062.53;2034625;79;20259;-76
2021/01/02 10:53:26;;;;;;;18.34;9.24;;;;;;;0.37;85.00;99060.16;2035041;79;20185;-76
2021/01/02 10:56:28;;;;;;;16.98;8.56;;;;;;;0.38;84.93;99055.91;2034852;79;20188;-75
2021/01/02 10:59:29;;;;;;;17.07;8.91;;;;;;;0.48;85.23;99058.78;2034835;79;20185;-75
2021/01/02 11:02:31;;;;;;;14.63;9.26;;;;;;;0.54;85.16;99056.41;2034067;79;20198;-75
2021/01/02 11:05:33;;;;;;;14.69;8.83;;;;;;;0.61;85.12;99054.91;2034888;79;20760;-75
2021/01/02 11:08:36;;;;;;;13.94;8.26;;;;;;;0.60;84.66;99048.06;2034064;79;20234;-75
2021/01/02 11:11:38;;;;;;;13.34;8.14;;;;;;;0.65;84.76;99045.63;2035498;79;20625;-74
2021/01/02 11:14:40;;;;;;;14.43;7.50;;;;;;;0.70;84.73;99059.41;2035345;79;20197;-75
2021/01/02 11:17:42;;;;;;;13.31;7.40;;;;;;;0.67;84.43;99049.09;2035072;79;20199;-75
2021/01/02 11:20:47;;;;;;;12.11;7.70;;;;;;;0.72;84.07;99047.53;2035349;79;20268;-75
2021/01/02 11:23:49;;;;;;;12.41;7.25;;;;;;;0.76;84.33;99040.03;2034555;79;20210;-75
2021/01/02 11:26:54;;;;;;;12.78;8.04;;;;;;;0.82;83.77;99029.09;2033808;79;20328;-75
2021/01/02 11:29:56;;;;;;;11.59;6.87;;;;;;;0.86;84.00;99028.34;2034703;79;20663;-75
2021/01/02 11:32:57;;;;;;;11.11;7.06;;;;;;;0.96;84.35;99027.81;2035684;79;20176;-75
2021/01/02 11:35:59;;;;;;;10.34;7.26;;;;;;;1.08;84.55;99030.72;2035302;79;20340;-75
2021/01/02 11:39:04;;;;;;;11.46;7.74;;;;;;;1.14;84.39;99024.88;2034759;79;20278;-75
2021/01/02 11:42:09;;;;;;;11.55;8.45;;;;;;;1.11;83.79;99024.81;2035146;79;20767;-75
2021/01/02 11:45:14;;;;;;;15.63;7.88;;;;;;;1.09;83.66;99021.34;2034894;79;20867;-75
2021/01/02 11:48:16;;;;;;;11.07;7.57;;;;;;;1.09;83.92;99018.78;2034348;79;20467;-75
2021/01/02 11:51:18;;;;;;;12.17;7.72;;;;;;;1.18;84.11;99012.22;2034309;79;20350;-75
2021/01/02 11:54:20;;;;;;;10.69;7.68;;;;;;;1.21;84.17;99008.88;2034249;79;20625;-75
2021/01/02 11:57:22;;;;;;;10.52;7.04;;;;;;;1.27;84.05;99019.28;2034591;79;20699;-75
2021/01/02 12:00:24;;;;;;;11.68;7.18;;;;;;;1.21;83.58;99012.28;2034714;79;20870;-76
2021/01/02 12:03:26;;;;;;;13.08;8.20;;;;;;;1.18;83.91;99009.66;2035141;79;20361;-75
2021/01/02 12:06:29;;;;;;;12.39;6.72;;;;;;;1.13;83.76;99000.13;2034361;79;20202;-75
2021/01/02 12:09:31;;;;;;;13.91;7.46;;;;;;;1.12;83.80;98998.41;2034638;79;20165;-75
2021/01/02 12:12:32;;;;;;;12.40;7.89;;;;;;;1.13;84.27;98990.78;2035707;79;20336;-75
2021/01/02 12:15:34;;;;;;;13.61;7.84;;;;;;;1.18;84.85;98988.34;2035706;79;20312;-75
2021/01/02 12:18:36;;;;;;;12.70;6.92;;;;;;;1.27;85.02;98996.25;2035283;79;20309;-75
2021/01/02 12:21:38;;;;;;;9.92;6.70;;;;;;;1.32;84.78;98993.81;2035997;79;20215;-75
2021/01/02 12:24:41;;;;;;;12.84;8.48;;;;;;;1.31;84.72;98992.09;2036334;79;20211;-75
2021/01/02 12:27:43;;;;;;;11.93;7.24;;;;;;;1.29;84.52;98989.50;2046247;79;20328;-82
2021/01/02 12:30:45;;;;;;;10.35;7.11;;;;;;;1.34;84.63;98971.69;2049718;79;20361;-83
2021/01/02 12:33:47;;;;;;;9.84;6.70;;;;;;;1.41;84.83;98971.00;2057649;79;20342;-85
2021/01/02 12:36:49;;;;;;;13.19;7.92;;;;;;;1.46;84.72;98964.34;2037496;79;20332;-76
2021/01/02 12:39:51;;;;;;;11.24;6.91;;;;;;;1.43;84.37;98957.44;2038133;79;20157;-84
2021/01/02 12:42:53;;;;;;;14.36;7.50;;;;;;;1.51;84.78;98952.53;2055131;79;20312;-85
2021/01/02 12:45:58;;;;;;;14.23;8.14;;;;;;;1.52;84.45;98959.38;2050794;79;20400;-84
2021/01/02 12:48:59;;;;;;;13.22;8.01;;;;;;;1.57;84.36;98952.66;2049835;79;20338;-82
2021/01/02 12:52:04;;;;;;;13.91;8.35;;;;;;;1.64;84.44;98949.44;2050621;79;20388;-80
2021/01/02 12:55:07;;;;;;;13.59;8.30;;;;;;;1.73;84.34;98946.22;2048577;79;20342;-82
2021/01/02 12:58:08;;;;;;;14.96;8.83;;;;;;;1.72;84.07;98954.72;2050698;79;20361;-81
2021/01/02 13:01:10;;;;;;;14.70;8.60;;;;;;;1.75;83.90;98947.97;2053213;79;20169;-82
2021/01/02 13:04:14;;;;;;;11.79;7.96;;;;;;;1.74;83.77;98948.81;2049565;79;20696;-82
2021/01/02 13:07:20;;;;;;;14.39;8.20;;;;;;;1.67;83.31;98946.94;2051592;79;20360;-83
2021/01/02 13:10:22;;;;;;;12.23;7.89;;;;;;;1.71;83.69;98940.19;2054169;79;20300;-83
2021/01/02 13:13:24;;;;;;;11.98;7.69;;;;;;;1.79;83.92;98933.53;2052266;79;20301;-81
2021/01/02 13:16:26;;;;;;;12.69;8.14;;;;;;;1.79;83.57;98931.84;2050438;79;20384;-84
2021/01/02 13:19:28;;;;;;;11.75;7.89;;;;;;;1.87;83.68;98929.50;2050650;79;20330;-86
2021/01/02 13:22:29;;;;;;;12.27;7.78;;;;;;;1.94;83.90;98935.59;2050543;79;20324;-83
2021/01/02 13:25:31;;;;;;;10.91;7.71;;;;;;;2.05;84.25;98931.59;2049642;79;20309;-82
2021/01/02 13:28:33;;;;;;;11.57;7.32;;;;;;;2.12;83.92;98926.63;2051069;79;20413;-83
2021/01/02 13:31:41;;;;;;;9.95;7.15;;;;;;;2.09;83.48;98924.00;2045807;79;20313;-80
2021/01/02 13:34:42;;;;;;;10.51;7.29;;;;;;;2.02;83.14;98927.28;2047526;79;20312;-81
2021/01/02 13:37:44;;;;;;;11.26;7.49;;;;;;;2.04;83.17;98933.28;2046902;79;20312;-83
2021/01/02 13:40:45;;;;;;;11.11;8.26;;;;;;;2.09;83.28;98926.56;2048828;79;20352;-83
2021/01/02 13:43:47;;;;;;;11.93;7.71;;;;;;;2.12;82.95;98925.75;2052740;79;20829;-81
2021/01/02 13:46:55;;;;;;;11.66;7.44;;;;;;;2.11;83.00;98916.34;2050897;79;20340;-82
2021/01/02 13:49:57;;;;;;;11.48;7.21;;;;;;;2.16;82.92;98919.03;2050727;79;20320;-81
2021/01/02 13:52:58;;;;;;;9.96;7.09;;;;;;;2.07;82.72;98917.13;2052628;79;20346;-82
2021/01/02 13:56:00;;;;;;;10.13;7.10;;;;;;;2.08;83.05;98921.41;2051005;79;20361;-82
2021/01/02 13:59:02;;;;;;;10.40;7.22;;;;;;;2.10;83.19;98923.16;2049874;79;20329;-83
2021/01/02 14:02:04;;;;;;;9.36;6.43;;;;;;;2.10;83.20;98922.31;2048526;79;20317;-81
2021/01/02 14:05:06;;;;;;;10.60;7.49;;;;;;;2.01;83.13;98930.66;2051145;79;20369;-82
2021/01/02 14:08:26;;;;;;;11.70;7.40;;;;;;;2.00;83.56;98921.25;2049344;79;20475;-82
2021/01/02 14:11:28;;;;;;;10.55;6.80;;;;;;;2.05;83.82;98921.34;2049917;79;20337;-86
2021/01/02 14:14:32;;;;;;;12.35;7.60;;;;;;;2.03;83.81;98921.31;2051095;79;20330;-82
2021/01/02 14:17:34;;;;;;;11.06;7.22;;;;;;;2.03;84.06;98918.75;2050426;79;20541;-81
2021/01/02 14:20:35;;;;;;;10.63;7.20;;;;;;;2.02;84.34;98918.72;2044692;79;20446;-81
2021/01/02 14:23:37;;;;;;;11.66;7.50;;;;;;;2.02;84.58;98917.03;2047776;79;20366;-81
2021/01/02 14:26:39;;;;;;;11.26;6.85;;;;;;;2.01;84.69;98925.53;2049031;79;20324;-82